Time;durP1;ratioP1;P1;durP2;ratioP2;P2;SDS_P1;SDS_P2;PMS_P1;PMS_P2;Temp;Humidity;BMP_temperature;BMP_pressure;BME280_temperature;BME280_humidity;BME280_pressure;Samples;Min_cycle;Max_cycle;Signal;HPM_P1;HPM_P2
2022/07/31 00:00:39;;;;;;;7.23;4.13;;;18.60;99.90;;;;;;4956627;29;20130;-76
2022/07/31 00:03:06;;;;;;;6.90;4.03;;;18.60;99.90;;;;;;4954872;29;20162;-76
2022/07/31 00:05:31;;;;;;;8.82;4.53;;;18.60;99.90;;;;;;4955519;29;20131;-77
2022/07/31 00:07:58;;;;;;;8.23;4.30;;;18.50;99.90;;;;;;4954971;28;20397;-79
2022/07/31 00:10:23;;;;;;;8.35;4.40;;;18.50;99.90;;;;;;4954588;29;20492;-77
2022/07/31 00:12:50;;;;;;;10.37;4.57;;;18.40;99.90;;;;;;4956163;28;20172;-78
2022/07/31 00:15:16;;;;;;;8.60;4.88;;;18.40;99.90;;;;;;4954330;29;20559;-76
2022/07/31 00:17:43;;;;;;;8.20;4.77;;;18.40;99.90;;;;;;4957098;29;20135;-75
2022/07/31 00:20:12;;;;;;;8.85;5.32;;;18.40;99.90;;;;;;4965509;29;20097;-76
2022/07/31 00:22:38;;;;;;;7.65;4.57;;;18.40;99.90;;;;;;4958624;29;20038;-78
2022/07/31 00:25:05;;;;;;;8.48;5.07;;;18.30;99.90;;;;;;4939177;29;20058;-76
2022/07/31 00:27:31;;;;;;;12.77;5.13;;;18.40;99.90;;;;;;4958172;29;20408;-76
2022/07/31 00:29:57;;;;;;;8.68;4.85;;;18.30;99.90;;;;;;4960384;29;20106;-76
2022/07/31 00:32:28;;;;;;;8.98;5.18;;;18.40;99.90;;;;;;4959544;29;20057;-79
2022/07/31 00:34:54;;;;;;;8.97;5.03;;;18.40;99.90;;;;;;4959755;29;20047;-77
2022/07/31 00:37:20;;;;;;;10.70;5.30;;;18.40;99.90;;;;;;4958422;29;20085;-76
2022/07/31 00:39:46;;;;;;;11.00;5.57;;;18.30;99.90;;;;;;4957426;29;20520;-75
2022/07/31 00:42:19;;;;;;;11.33;5.20;;;18.30;99.90;;;;;;4955771;29;20488;-75
2022/07/31 00:44:45;;;;;;;8.15;5.05;;;18.30;99.90;;;;;;4955767;29;20122;-76
2022/07/31 00:47:12;;;;;;;8.67;4.37;;;18.30;99.90;;;;;;4954299;29;20047;-76
2022/07/31 00:49:38;;;;;;;10.18;5.32;;;18.30;99.90;;;;;;4955738;29;20051;-76
2022/07/31 00:52:05;;;;;;;11.77;5.33;;;18.30;99.90;;;;;;4955516;28;20110;-76
2022/07/31 00:54:31;;;;;;;8.93;4.88;;;18.30;99.90;;;;;;4956642;29;20044;-76
2022/07/31 00:56:57;;;;;;;11.98;5.68;;;18.30;99.90;;;;;;4958081;29;20051;-76
2022/07/31 00:59:23;;;;;;;11.47;5.60;;;18.30;99.90;;;;;;4954846;29;20051;-76
2022/07/31 01:01:48;;;;;;;13.90;5.13;;;18.30;99.90;;;;;;4957178;29;20051;-76
2022/07/31 01:04:17;;;;;;;9.90;5.10;;;18.30;99.90;;;;;;4938719;29;20114;-76
2022/07/31 01:06:44;;;;;;;8.32;5.65;;;18.30;99.90;;;;;;4954675;29;20070;-75
2022/07/31 01:09:10;;;;;;;10.98;5.55;;;18.30;99.90;;;;;;4955666;29;20118;-75
2022/07/31 01:11:44;;;;;;;8.83;5.10;;;18.30;99.90;;;;;;4954001;29;20047;-77
2022/07/31 01:14:11;;;;;;;9.05;5.15;;;18.30;99.90;;;;;;4937860;29;20107;-75
2022/07/31 01:16:43;;;;;;;13.40;5.63;;;18.30;99.90;;;;;;4955023;29;20059;-77
2022/07/31 01:19:24;;;;;;;8.32;5.50;;;18.20;99.90;;;;;;4958110;28;20055;-76
2022/07/31 01:22:21;;;;;;;7.97;5.10;;;18.30;99.90;;;;;;4938440;29;20066;-76
2022/07/31 01:24:49;;;;;;;11.52;5.38;;;18.30;99.90;;;;;;4956247;28;20053;-76
2022/07/31 01:27:49;;;;;;;10.93;5.50;;;18.30;99.90;;;;;;4955723;29;20068;-75
2022/07/31 01:30:15;;;;;;;9.25;4.70;;;18.30;99.90;;;;;;4955847;28;20164;-76
2022/07/31 01:32:45;;;;;;;11.02;5.25;;;18.30;99.90;;;;;;4953804;29;20115;-76
2022/07/31 01:35:28;;;;;;;9.77;5.20;;;18.30;99.90;;;;;;4953560;29;20148;-77
2022/07/31 01:37:57;;;;;;;6.75;4.90;;;18.30;99.90;;;;;;4955873;28;20094;-77
2022/07/31 01:40:30;;;;;;;10.50;5.00;;;18.30;99.90;;;;;;4954815;29;20055;-75
2022/07/31 01:43:00;;;;;;;12.55;5.07;;;18.30;99.90;;;;;;4938263;29;20051;-77
2022/07/31 01:45:29;;;;;;;8.52;4.68;;;18.30;99.90;;;;;;4954778;29;20047;-76
2022/07/31 01:47:56;;;;;;;6.65;4.60;;;18.30;99.90;;;;;;4954262;29;20130;-76
2022/07/31 01:50:24;;;;;;;6.50;4.25;;;18.20;99.90;;;;;;4953086;29;20083;-77
2022/07/31 01:52:50;;;;;;;10.13;5.10;;;18.30;99.90;;;;;;4952900;29;20573;-75
2022/07/31 01:55:18;;;;;;;10.00;4.75;;;18.20;99.90;;;;;;4922118;29;20367;-75
2022/07/31 01:57:44;;;;;;;7.97;4.90;;;18.30;99.90;;;;;;4953199;29;20066;-76
2022/07/31 02:00:11;;;;;;;10.07;4.90;;;18.20;99.90;;;;;;4921111;29;20094;-76
2022/07/31 02:02:37;;;;;;;;;;;18.20;99.90;;;;;;4954637;29;20113;-76
2022/07/31 02:05:07;;;;;;;11.07;4.55;;;18.20;99.90;;;;;;4937237;29;19923;-75
2022/07/31 02:07:39;;;;;;;9.95;4.75;;;18.20;99.90;;;;;;4952906;29;20071;-75
2022/07/31 02:10:07;;;;;;;9.57;4.63;;;18.20;99.90;;;;;;4937940;29;20134;-75
2022/07/31 02:12:34;;;;;;;9.80;4.82;;;18.20;99.90;;;;;;4938932;29;20527;-76
2022/07/31 02:15:06;;;;;;;9.90;4.68;;;18.20;99.90;;;;;;4954281;29;20149;-77
2022/07/31 02:17:33;;;;;;;8.88;4.65;;;18.20;99.90;;;;;;4938659;29;20055;-75
2022/07/31 02:20:00;;;;;;;11.90;4.80;;;18.20;99.90;;;;;;4954219;29;20146;-76
2022/07/31 02:22:28;;;;;;;8.15;4.70;;;18.20;99.90;;;;;;4955082;29;20110;-74
2022/07/31 02:24:53;;;;;;;8.45;4.32;;;18.10;99.90;;;;;;4956148;28;20039;-76
2022/07/31 02:27:20;;;;;;;8.67;4.90;;;18.10;99.90;;;;;;4953383;29;20073;-75
2022/07/31 02:29:47;;;;;;;8.88;5.20;;;18.20;99.90;;;;;;4955967;28;20062;-75
2022/07/31 02:32:13;;;;;;;11.05;4.93;;;18.10;99.90;;;;;;4957971;28;20137;-75
2022/07/31 02:34:41;;;;;;;9.43;5.40;;;18.10;99.90;;;;;;4958194;28;20059;-75
2022/07/31 02:37:07;;;;;;;8.25;5.00;;;18.10;99.90;;;;;;4956874;29;20043;-75
2022/07/31 02:39:34;;;;;;;9.93;5.93;;;18.10;99.90;;;;;;4941198;29;20150;-76
2022/07/31 02:42:01;;;;;;;10.82;5.35;;;18.10;99.90;;;;;;4956881;29;20073;-76
2022/07/31 02:44:30;;;;;;;9.57;5.30;;;18.10;99.90;;;;;;4956575;29;20082;-77
2022/07/31 02:46:58;;;;;;;8.40;5.10;;;18.10;99.90;;;;;;4957832;29;20126;-76
2022/07/31 02:49:25;;;;;;;10.32;4.80;;;18.20;99.90;;;;;;4940777;29;20063;-78
2022/07/31 02:51:51;;;;;;;8.57;5.30;;;18.10;99.90;;;;;;4957523;28;20173;-76
2022/07/31 02:54:17;;;;;;;10.15;5.57;;;18.10;99.90;;;;;;4957761;28;20047;-77
2022/07/31 02:56:45;;;;;;;9.20;5.40;;;18.20;99.90;;;;;;4940527;29;20051;-79
2022/07/31 02:59:10;;;;;;;8.52;5.15;;;18.10;99.90;;;;;;4939645;29;20055;-81
2022/07/31 03:01:37;;;;;;;12.27;5.37;;;18.20;99.90;;;;;;4956088;29;20043;-75
2022/07/31 03:04:03;;;;;;;11.38;5.75;;;18.10;99.90;;;;;;4956335;29;20082;-75
2022/07/31 03:06:28;;;;;;;13.90;5.37;;;18.10;99.90;;;;;;4957852;29;20495;-74
2022/07/31 03:08:54;;;;;;;10.53;5.70;;;18.10;99.90;;;;;;4957499;29;20484;-75
2022/07/31 03:11:20;;;;;;;10.73;5.27;;;18.00;99.90;;;;;;4955924;29;20384;-75
2022/07/31 03:13:47;;;;;;;11.10;5.30;;;18.10;99.90;;;;;;4957432;29;20044;-77
2022/07/31 03:16:13;;;;;;;9.65;5.50;;;18.00;99.90;;;;;;4955925;29;20460;-75
2022/07/31 03:18:40;;;;;;;10.30;5.68;;;18.00;99.90;;;;;;4957043;29;20062;-74
2022/07/31 03:21:09;;;;;;;12.57;5.60;;;18.00;99.90;;;;;;4939769;29;20241;-75
2022/07/31 03:23:35;;;;;;;13.65;5.90;;;18.10;99.90;;;;;;4955788;29;20436;-75
2022/07/31 03:26:02;;;;;;;10.88;6.03;;;17.90;99.90;;;;;;4955722;29;20527;-76
2022/07/31 03:28:27;;;;;;;14.30;6.15;;;17.90;99.90;;;;;;4956885;29;20051;-77
2022/07/31 03:30:54;;;;;;;9.55;5.30;;;17.90;99.90;;;;;;4955948;29;20498;-78
2022/07/31 03:33:21;;;;;;;10.00;6.03;;;17.90;99.90;;;;;;4955607;29;20043;-75
2022/07/31 03:35:46;;;;;;;;;;;17.80;99.90;;;;;;4940696;29;20471;-75
2022/07/31 03:38:12;;;;;;;10.57;5.60;;;17.80;99.90;;;;;;4957206;29;19930;-80
2022/07/31 03:40:39;;;;;;;7.93;5.47;;;17.80;99.90;;;;;;4955841;29;20158;-76
2022/07/31 03:43:05;;;;;;;12.52;6.10;;;17.80;99.90;;;;;;4956258;28;20134;-75
2022/07/31 03:45:33;;;;;;;;;;;17.70;99.90;;;;;;4957564;28;20050;-74
2022/07/31 03:47:59;;;;;;;9.35;6.00;;;17.70;99.90;;;;;;4957377;29;19945;-75
2022/07/31 03:50:26;;;;;;;10.55;6.30;;;17.70;99.90;;;;;;4955625;29;20059;-77
2022/07/31 03:52:52;;;;;;;13.32;6.10;;;17.60;99.90;;;;;;4955013;29;20411;-74
2022/07/31 03:55:17;;;;;;;13.70;6.50;;;17.70;99.90;;;;;;4956552;29;20069;-74
2022/07/31 03:57:44;;;;;;;12.37;5.80;;;17.60;99.90;;;;;;4939266;29;20074;-74
2022/07/31 04:00:10;;;;;;;10.38;5.70;;;17.60;99.90;;;;;;4955936;29;20420;-74
2022/07/31 04:02:36;;;;;;;12.75;5.75;;;17.60;99.90;;;;;;4956414;29;20047;-75
2022/07/31 04:05:02;;;;;;;9.70;5.93;;;17.60;99.90;;;;;;4954881;29;20039;-76
2022/07/31 04:07:28;;;;;;;9.95;5.68;;;17.60;99.90;;;;;;4939164;29;20059;-83
2022/07/31 04:09:54;;;;;;;13.27;5.87;;;17.60;99.90;;;;;;4954968;29;20070;-74
2022/07/31 04:12:20;;;;;;;11.93;6.27;;;17.60;99.90;;;;;;4954992;29;20058;-76
2022/07/31 04:14:45;;;;;;;12.47;5.97;;;17.60;99.90;;;;;;4956019;29;20484;-75
2022/07/31 04:17:12;;;;;;;11.23;5.53;;;17.60;99.90;;;;;;4939288;29;20059;-74
2022/07/31 04:19:38;;;;;;;11.10;5.32;;;17.60;99.90;;;;;;4954818;29;20179;-74
2022/07/31 04:22:04;;;;;;;8.53;5.77;;;17.60;99.90;;;;;;4956538;29;20086;-75
2022/07/31 04:24:30;;;;;;;13.38;5.88;;;17.60;99.90;;;;;;4955533;29;20476;-74
2022/07/31 04:26:56;;;;;;;11.20;5.40;;;17.60;99.90;;;;;;4954784;29;20047;-74
2022/07/31 04:29:22;;;;;;;9.33;5.53;;;17.60;99.90;;;;;;4955950;28;20057;-75
2022/07/31 04:31:48;;;;;;;8.50;5.65;;;17.60;99.90;;;;;;4938544;29;20506;-75
2022/07/31 04:34:14;;;;;;;12.17;6.23;;;17.70;99.90;;;;;;4938626;29;20047;-75
2022/07/31 04:36:40;;;;;;;11.77;6.00;;;17.70;99.90;;;;;;4956043;29;20051;-75
2022/07/31 04:39:06;;;;;;;8.63;5.60;;;17.70;99.90;;;;;;4954184;29;20143;-75
2022/07/31 04:41:31;;;;;;;11.63;5.63;;;17.70;99.90;;;;;;4938498;29;20055;-75
2022/07/31 04:43:58;;;;;;;13.18;5.97;;;17.70;99.90;;;;;;4954339;29;20035;-75
2022/07/31 04:46:25;;;;;;;11.70;5.55;;;17.70;99.90;;;;;;4938852;29;20047;-75
2022/07/31 04:48:50;;;;;;;11.15;5.53;;;17.60;99.90;;;;;;4955536;28;20126;-79
2022/07/31 04:51:22;;;;;;;10.03;5.77;;;17.60;99.90;;;;;;4954702;29;20171;-76
2022/07/31 04:53:49;;;;;;;11.38;5.47;;;17.70;99.90;;;;;;4954899;28;20043;-75
2022/07/31 04:59:05;;;;;;;11.77;5.97;;;17.80;99.90;;;;;;4955652;29;19922;-75
2022/07/31 05:01:31;;;;;;;12.18;6.35;;;17.80;99.90;;;;;;4955383;29;20155;-75
2022/07/31 05:03:57;;;;;;;12.75;6.63;;;17.90;99.90;;;;;;4955015;28;20579;-77
2022/07/31 05:06:32;;;;;;;12.00;6.63;;;18.00;99.90;;;;;;4954795;29;20373;-81
2022/07/31 05:08:58;;;;;;;13.77;7.07;;;18.10;99.90;;;;;;4954330;29;20053;-76
2022/07/31 05:11:23;;;;;;;9.17;6.37;;;18.10;99.90;;;;;;4955115;29;20472;-77
2022/07/31 05:13:54;;;;;;;16.93;7.37;;;18.20;99.90;;;;;;4937972;29;20497;-75
2022/07/31 05:16:21;;;;;;;12.60;7.45;;;18.20;99.90;;;;;;4954912;29;20074;-75
2022/07/31 05:18:47;;;;;;;;;;;18.30;99.90;;;;;;4922928;29;20066;-75
2022/07/31 05:21:14;;;;;;;13.02;7.25;;;18.30;99.90;;;;;;4953629;29;19922;-75
2022/07/31 05:23:42;;;;;;;10.70;7.05;;;18.30;99.90;;;;;;4954700;28;20054;-75
2022/07/31 05:26:08;;;;;;;11.98;6.68;;;18.30;99.90;;;;;;4953602;29;20047;-75
2022/07/31 05:28:35;;;;;;;11.07;6.95;;;18.30;99.90;;;;;;4954741;29;20178;-79
2022/07/31 05:31:01;;;;;;;11.95;7.03;;;18.40;99.90;;;;;;4954816;29;20055;-76
2022/07/31 05:33:27;;;;;;;9.97;6.70;;;18.50;99.90;;;;;;4953575;29;20043;-75
2022/07/31 05:35:54;;;;;;;13.40;6.90;;;18.50;99.90;;;;;;4954490;29;20051;-75
2022/07/31 05:38:20;;;;;;;;;;;18.50;99.90;;;;;;4953969;29;20070;-75
2022/07/31 05:40:45;;;;;;;13.55;7.10;;;18.60;99.90;;;;;;4954749;29;19938;-78
2022/07/31 05:43:11;;;;;;;13.33;6.87;;;18.60;99.90;;;;;;4953590;29;20138;-76
2022/07/31 05:45:37;;;;;;;12.97;6.90;;;18.60;99.90;;;;;;4953071;29;20130;-75
2022/07/31 05:48:03;;;;;;;12.75;7.70;;;18.70;99.90;;;;;;4953574;29;20062;-76
2022/07/31 05:50:29;;;;;;;14.00;7.22;;;18.70;99.90;;;;;;4954561;29;20047;-75
2022/07/31 05:52:55;;;;;;;12.30;6.50;;;18.70;99.90;;;;;;4953159;29;20535;-75
2022/07/31 05:55:21;;;;;;;11.03;7.20;;;18.60;99.90;;;;;;4954860;29;20051;-75
2022/07/31 05:57:47;;;;;;;16.03;7.83;;;18.70;99.90;;;;;;4938065;29;20118;-75
2022/07/31 06:00:15;;;;;;;12.35;6.88;;;18.80;99.90;;;;;;4954453;29;20047;-75
2022/07/31 06:02:41;;;;;;;12.32;8.18;;;18.80;99.90;;;;;;4954688;28;20102;-75
2022/07/31 06:05:07;;;;;;;13.43;7.97;;;18.90;99.90;;;;;;4939200;29;20407;-74
2022/07/31 06:07:34;;;;;;;13.32;7.88;;;19.00;99.90;;;;;;4956991;29;20111;-77
2022/07/31 06:10:00;;;;;;;12.60;8.52;;;19.00;99.90;;;;;;4957312;29;20145;-75
2022/07/31 06:12:26;;;;;;;11.23;8.18;;;19.10;99.90;;;;;;4941141;29;20531;-79
2022/07/31 06:14:55;;;;;;;13.97;8.73;;;19.20;99.90;;;;;;4958848;28;20183;-76
2022/07/31 06:17:21;;;;;;;16.17;8.23;;;19.30;99.90;;;;;;4957190;29;20047;-75
2022/07/31 06:19:46;;;;;;;14.47;8.37;;;19.40;99.90;;;;;;4957382;29;20342;-76
2022/07/31 06:22:15;;;;;;;12.80;8.13;;;19.40;99.90;;;;;;4941256;29;20141;-74
2022/07/31 06:24:40;;;;;;;12.98;8.48;;;19.50;99.90;;;;;;4940955;29;20047;-77
2022/07/31 06:27:06;;;;;;;13.43;8.00;;;19.50;99.90;;;;;;4941315;29;20051;-76
2022/07/31 06:29:32;;;;;;;12.30;8.13;;;19.60;99.90;;;;;;4956779;29;20105;-76
2022/07/31 06:31:58;;;;;;;13.55;7.70;;;19.60;99.90;;;;;;4956996;29;20122;-75
2022/07/31 06:34:24;;;;;;;12.63;8.03;;;19.60;99.90;;;;;;4958285;29;20051;-74
2022/07/31 06:36:50;;;;;;;14.40;7.57;;;19.60;99.90;;;;;;4956655;29;20047;-74
2022/07/31 06:39:16;;;;;;;12.30;7.77;;;19.60;99.90;;;;;;4958061;29;20053;-74
2022/07/31 06:41:51;;;;;;;13.90;7.68;;;19.70;99.90;;;;;;4956862;29;20103;-74
2022/07/31 06:44:18;;;;;;;11.82;7.13;;;19.80;99.90;;;;;;4957100;29;20046;-76
2022/07/31 06:46:48;;;;;;;12.02;7.03;;;19.90;99.90;;;;;;4941070;29;20083;-76
2022/07/31 06:49:14;;;;;;;12.55;7.40;;;20.00;99.90;;;;;;4940743;29;20048;-77
2022/07/31 06:51:40;;;;;;;11.65;6.72;;;20.00;99.90;;;;;;4940055;29;20063;-76
2022/07/31 06:54:09;;;;;;;10.65;7.30;;;20.10;99.90;;;;;;4957524;29;20050;-77
2022/07/31 06:56:36;;;;;;;10.20;7.28;;;20.30;99.90;;;;;;4940854;29;20379;-77
2022/07/31 06:59:04;;;;;;;12.95;7.05;;;20.30;99.90;;;;;;4957121;29;20050;-77
2022/07/31 07:01:31;;;;;;;11.52;7.22;;;20.40;99.90;;;;;;4957442;29;20059;-81
2022/07/31 07:03:57;;;;;;;11.48;7.15;;;20.40;99.90;;;;;;4956426;29;20043;-75
2022/07/31 07:06:23;;;;;;;12.37;7.83;;;20.50;99.90;;;;;;4955863;29;20044;-76
2022/07/31 07:08:49;;;;;;;15.25;7.57;;;20.60;99.90;;;;;;4957230;29;20085;-76
2022/07/31 07:11:14;;;;;;;15.25;7.65;;;20.60;99.90;;;;;;4956071;29;20049;-76
2022/07/31 07:13:40;;;;;;;15.77;7.40;;;20.70;99.90;;;;;;4957788;28;20220;-76
2022/07/31 07:16:06;;;;;;;14.57;7.70;;;20.70;99.90;;;;;;4955242;28;20483;-76
2022/07/31 07:18:32;;;;;;;14.30;7.60;;;20.60;99.90;;;;;;4956009;29;20143;-80
2022/07/31 07:20:58;;;;;;;14.17;7.73;;;20.70;99.90;;;;;;4957173;29;20471;-75
2022/07/31 07:23:24;;;;;;;10.07;7.40;;;20.80;99.90;;;;;;4909362;29;20365;-74
2022/07/31 07:25:50;;;;;;;11.63;8.07;;;20.70;99.90;;;;;;4956359;29;20060;-74
2022/07/31 07:28:17;;;;;;;12.95;8.13;;;20.80;99.90;;;;;;4940473;29;20055;-79
2022/07/31 07:30:43;;;;;;;14.27;8.07;;;20.70;99.90;;;;;;4957244;29;20054;-75
2022/07/31 07:33:08;;;;;;;13.80;7.90;;;20.90;99.90;;;;;;4955856;29;20056;-76
2022/07/31 07:35:35;;;;;;;13.63;7.47;;;20.90;99.90;;;;;;4940695;29;20798;-83
2022/07/31 07:38:01;;;;;;;;;;;21.00;99.90;;;;;;4958115;28;20054;-76
2022/07/31 07:40:27;;;;;;;15.57;8.27;;;21.10;99.90;;;;;;4956908;29;19923;-79
2022/07/31 07:42:53;;;;;;;16.67;7.43;;;21.10;99.90;;;;;;4958727;29;20182;-75
2022/07/31 07:45:19;;;;;;;16.30;8.23;;;21.00;99.90;;;;;;4944488;29;20115;-75
2022/07/31 07:47:44;;;;;;;11.93;7.65;;;21.00;99.90;;;;;;4961073;29;20043;-75
2022/07/31 07:50:11;;;;;;;14.23;7.67;;;21.00;99.90;;;;;;4959180;29;20134;-76
2022/07/31 07:52:37;;;;;;;13.02;8.00;;;21.10;99.90;;;;;;4958379;29;20476;-76
2022/07/31 07:55:05;;;;;;;12.77;8.30;;;21.10;99.90;;;;;;4959722;29;20058;-79
2022/07/31 07:57:31;;;;;;;11.80;7.75;;;21.10;99.90;;;;;;4959398;29;20071;-74
2022/07/31 08:00:08;;;;;;;12.75;8.32;;;21.10;99.90;;;;;;4961747;29;20051;-74
2022/07/31 08:02:33;;;;;;;16.48;8.82;;;21.10;99.90;;;;;;4945767;29;20047;-75
2022/07/31 08:05:00;;;;;;;14.53;8.77;;;21.20;99.90;;;;;;4961029;29;20452;-78
2022/07/31 08:07:31;;;;;;;15.93;8.88;;;21.20;99.90;;;;;;4959135;29;20054;-76
2022/07/31 08:09:58;;;;;;;19.02;9.65;;;21.30;99.90;;;;;;4959547;29;20486;-75
2022/07/31 08:12:24;;;;;;;14.70;9.15;;;21.40;99.90;;;;;;4940986;29;20117;-75
2022/07/31 08:14:51;;;;;;;16.23;9.38;;;21.60;99.90;;;;;;4959620;29;20117;-75
2022/07/31 08:17:16;;;;;;;16.63;9.73;;;21.70;99.90;;;;;;4959646;29;20321;-75
2022/07/31 08:19:42;;;;;;;19.83;9.80;;;21.60;99.90;;;;;;4959951;29;20051;-77
2022/07/31 08:22:08;;;;;;;14.67;9.20;;;21.80;99.90;;;;;;4945193;29;20110;-76
2022/07/31 08:24:34;;;;;;;15.98;9.15;;;22.00;99.90;;;;;;4961353;29;20046;-74
2022/07/31 08:29:45;;;;;;;12.88;8.55;;;22.20;99.90;;;;;;4958075;28;20051;-74
2022/07/31 08:32:11;;;;;;;13.60;7.50;;;22.40;99.90;;;;;;4958976;28;20135;-74
2022/07/31 08:34:38;;;;;;;12.90;8.15;;;22.50;99.90;;;;;;4941725;29;20367;-76
2022/07/31 08:37:05;;;;;;;11.88;8.35;;;22.60;99.90;;;;;;4960044;28;20097;-75
2022/07/31 08:39:35;;;;;;;11.60;7.68;;;22.60;99.90;;;;;;4958615;29;20059;-75
2022/07/31 08:42:05;;;;;;;10.95;7.40;;;22.60;99.90;;;;;;4943279;29;20132;-75
2022/07/31 08:44:31;;;;;;;11.90;7.30;;;22.50;99.90;;;;;;4959303;29;20048;-74
2022/07/31 08:46:57;;;;;;;18.17;7.83;;;22.60;99.90;;;;;;4960042;29;20053;-74
2022/07/31 08:49:25;;;;;;;13.13;7.65;;;22.60;99.90;;;;;;4958508;29;20058;-74
2022/07/31 08:51:52;;;;;;;12.07;7.88;;;22.50;99.90;;;;;;4957096;29;20098;-74
2022/07/31 08:54:19;;;;;;;12.57;7.20;;;22.40;99.90;;;;;;4956085;29;20049;-74
2022/07/31 08:56:46;;;;;;;11.52;7.53;;;22.50;99.90;;;;;;4958378;29;20110;-77
2022/07/31 08:59:16;;;;;;;12.93;7.30;;;22.50;99.90;;;;;;4958215;28;20093;-75
2022/07/31 09:01:42;;;;;;;13.68;7.30;;;22.50;99.90;;;;;;4940585;29;20083;-75
2022/07/31 09:04:08;;;;;;;12.27;7.70;;;22.40;99.90;;;;;;4955378;29;20051;-75
2022/07/31 09:06:34;;;;;;;11.15;7.30;;;22.10;99.90;;;;;;4954903;29;20054;-75
2022/07/31 09:09:00;;;;;;;11.73;7.07;;;22.00;99.90;;;;;;4956490;29;20087;-77
2022/07/31 09:11:26;;;;;;;13.10;7.50;;;22.00;99.90;;;;;;4939068;29;20368;-78
2022/07/31 09:14:01;;;;;;;14.00;7.83;;;21.90;99.90;;;;;;4955166;29;20059;-75
2022/07/31 09:16:28;;;;;;;12.13;8.07;;;21.80;99.90;;;;;;4955706;29;20342;-77
2022/07/31 09:18:57;;;;;;;;;;;21.80;99.90;;;;;;4956386;28;20408;-75
2022/07/31 09:21:24;;;;;;;12.18;7.78;;;21.70;99.90;;;;;;4955381;29;19923;-81
2022/07/31 09:23:50;;;;;;;12.80;7.90;;;21.70;99.90;;;;;;4955082;28;20571;-76
2022/07/31 09:26:16;;;;;;;11.55;7.70;;;21.40;99.90;;;;;;4955491;28;20519;-74
2022/07/31 09:28:44;;;;;;;16.10;7.75;;;21.40;99.90;;;;;;4955112;28;20051;-79
2022/07/31 09:31:12;;;;;;;15.70;8.30;;;21.20;99.90;;;;;;4938375;29;20051;-75
2022/07/31 09:33:42;;;;;;;12.60;8.77;;;21.30;99.90;;;;;;4953886;28;20079;-75
2022/07/31 09:36:08;;;;;;;14.20;8.18;;;21.40;99.90;;;;;;4954705;29;20062;-80
2022/07/31 09:38:40;;;;;;;13.27;8.02;;;21.40;99.90;;;;;;4955070;29;20058;-75
2022/07/31 09:41:17;;;;;;;12.18;7.82;;;21.50;99.90;;;;;;4954745;28;20388;-75
2022/07/31 09:43:59;;;;;;;14.40;9.05;;;21.60;99.90;;;;;;4937501;29;20055;-75
2022/07/31 09:46:26;;;;;;;12.90;8.35;;;21.60;99.90;;;;;;4953632;29;20062;-75
2022/07/31 09:48:53;;;;;;;;;;;21.50;99.90;;;;;;4954843;29;20051;-75
2022/07/31 09:51:18;;;;;;;12.75;8.75;;;21.50;99.90;;;;;;4936737;29;20385;-74
2022/07/31 09:53:51;;;;;;;17.10;9.47;;;21.40;99.90;;;;;;4953049;29;20063;-78
2022/07/31 09:56:28;;;;;;;18.48;9.98;;;21.40;99.90;;;;;;4953453;29;20066;-74
2022/07/31 09:58:55;;;;;;;15.07;9.55;;;21.50;99.90;;;;;;4953280;29;20084;-75
2022/07/31 10:01:21;;;;;;;16.25;9.77;;;21.60;99.90;;;;;;4921901;29;20051;-79
2022/07/31 10:03:49;;;;;;;18.58;10.68;;;21.70;99.90;;;;;;4954492;29;20095;-74
2022/07/31 10:06:18;;;;;;;14.25;9.25;;;21.70;99.90;;;;;;4953055;29;20054;-77
2022/07/31 10:08:47;;;;;;;16.90;9.57;;;22.00;99.90;;;;;;4954467;29;20051;-73
2022/07/31 10:11:14;;;;;;;16.92;10.20;;;21.90;99.90;;;;;;4954452;28;20043;-75
2022/07/31 10:13:44;;;;;;;;;;;21.90;99.90;;;;;;4953734;29;20511;-74
2022/07/31 10:16:10;;;;;;;17.55;9.98;;;22.20;99.90;;;;;;4937747;29;19977;-73
2022/07/31 10:18:39;;;;;;;20.45;11.05;;;22.40;99.90;;;;;;4953229;29;20134;-75
2022/07/31 10:21:07;;;;;;;16.15;10.38;;;22.20;99.90;;;;;;4937330;29;20062;-74
2022/07/31 10:23:34;;;;;;;19.33;10.52;;;22.10;99.90;;;;;;4953535;29;20110;-75
2022/07/31 10:26:01;;;;;;;17.33;10.70;;;22.30;99.90;;;;;;4953765;29;20047;-74
2022/07/31 10:28:31;;;;;;;16.08;9.90;;;22.00;99.90;;;;;;4954478;28;20138;-75
2022/07/31 10:30:57;;;;;;;14.95;9.50;;;22.20;99.90;;;;;;4953670;29;20118;-74
2022/07/31 10:33:25;;;;;;;15.77;8.52;;;22.10;99.90;;;;;;4953365;29;20460;-75
2022/07/31 10:36:05;;;;;;;16.85;9.20;;;22.10;99.90;;;;;;4937779;29;20061;-75
2022/07/31 10:38:44;;;;;;;16.80;8.82;;;22.30;99.90;;;;;;4954851;28;20047;-74
2022/07/31 10:41:35;;;;;;;15.65;8.60;;;22.30;99.90;;;;;;4953192;29;20051;-74
2022/07/31 10:44:18;;;;;;;17.52;9.45;;;22.30;99.90;;;;;;4953346;29;20047;-73
2022/07/31 10:46:43;;;;;;;16.73;9.38;;;22.20;99.90;;;;;;4953539;29;20443;-73
2022/07/31 10:49:09;;;;;;;14.23;8.80;;;22.10;99.90;;;;;;4953485;29;20051;-74
2022/07/31 10:51:48;;;;;;;16.33;10.23;;;22.20;99.90;;;;;;4955379;28;20055;-77
2022/07/31 10:54:14;;;;;;;16.45;10.18;;;22.10;99.90;;;;;;4957748;28;20122;-75
2022/07/31 10:56:45;;;;;;;18.67;10.20;;;21.80;99.90;;;;;;4958181;28;20126;-75
2022/07/31 10:59:11;;;;;;;17.95;11.35;;;22.00;99.90;;;;;;4957820;28;20043;-74
2022/07/31 11:01:51;;;;;;;15.15;10.25;;;21.90;99.90;;;;;;4940343;29;20106;-76
2022/07/31 11:04:28;;;;;;;19.63;10.45;;;21.90;99.90;;;;;;4940318;29;20043;-77
2022/07/31 11:06:54;;;;;;;14.48;10.13;;;21.90;99.90;;;;;;4957028;28;20558;-75
2022/07/31 11:09:24;;;;;;;18.93;11.17;;;22.00;99.90;;;;;;4957776;28;20047;-76
2022/07/31 11:11:50;;;;;;;18.05;10.88;;;21.80;99.90;;;;;;4957827;28;20287;-76
2022/07/31 11:14:16;;;;;;;16.55;11.30;;;21.80;99.90;;;;;;4939841;29;20043;-75
2022/07/31 11:16:52;;;;;;;16.80;12.02;;;21.80;99.90;;;;;;4955872;29;20550;-75
2022/07/31 11:19:18;;;;;;;18.60;11.30;;;21.60;99.90;;;;;;4955738;29;20059;-74
2022/07/31 11:21:44;;;;;;;21.92;12.27;;;21.50;99.90;;;;;;4955409;29;20146;-73
2022/07/31 11:24:21;;;;;;;19.70;12.13;;;21.10;99.90;;;;;;4940755;29;20083;-72
2022/07/31 11:26:51;;;;;;;20.88;12.52;;;21.00;99.90;;;;;;4957039;28;20093;-71
2022/07/31 11:29:31;;;;;;;21.58;12.95;;;20.70;99.90;;;;;;4939338;29;20603;-71
2022/07/31 11:32:12;;;;;;;21.95;12.75;;;20.60;99.90;;;;;;4955845;28;20047;-70
2022/07/31 11:34:48;;;;;;;23.83;14.15;;;20.40;99.90;;;;;;4955134;29;20165;-70
2022/07/31 11:37:20;;;;;;;23.63;15.68;;;20.30;99.90;;;;;;4956664;28;20062;-72
2022/07/31 11:39:47;;;;;;;24.15;14.00;;;20.00;99.90;;;;;;4956672;28;20216;-72
2022/07/31 11:42:16;;;;;;;25.33;15.70;;;20.00;99.90;;;;;;4956329;28;20551;-74
2022/07/31 11:44:42;;;;;;;25.52;15.18;;;19.90;99.90;;;;;;4956608;28;20122;-73
2022/07/31 11:47:09;;;;;;;;;;;;;;;;;;4955547;29;20453;-73
2022/07/31 11:49:36;;;;;;;22.98;14.70;;;19.80;99.90;;;;;;4956197;29;20396;-75
2022/07/31 11:52:06;;;;;;;28.95;16.85;;;19.70;99.90;;;;;;4955695;29;20051;-75
2022/07/31 11:54:33;;;;;;;31.27;17.50;;;19.70;99.90;;;;;;4939516;29;20058;-76
2022/07/31 11:56:59;;;;;;;24.98;16.55;;;19.80;99.90;;;;;;4955513;29;20055;-76
2022/07/31 11:59:32;;;;;;;27.67;16.27;;;19.90;99.90;;;;;;4956638;28;20058;-74
2022/07/31 12:02:11;;;;;;;25.90;16.85;;;20.10;99.90;;;;;;4956814;28;20051;-76
2022/07/31 12:04:38;;;;;;;29.00;17.50;;;20.10;99.90;;;;;;4955818;29;20491;-74
2022/07/31 12:07:05;;;;;;;28.08;17.10;;;20.20;99.90;;;;;;4955370;29;20047;-74
2022/07/31 12:09:32;;;;;;;31.73;17.45;;;20.40;99.90;;;;;;4955317;29;20039;-75
2022/07/31 12:11:59;;;;;;;30.92;19.10;;;20.60;99.90;;;;;;4956468;28;20062;-76
2022/07/31 12:14:32;;;;;;;31.98;19.20;;;20.50;99.90;;;;;;4956258;28;20059;-75
2022/07/31 12:16:58;;;;;;;34.00;19.08;;;20.60;99.90;;;;;;4955426;29;20122;-73
2022/07/31 12:19:29;;;;;;;29.88;18.40;;;20.70;99.90;;;;;;4956702;28;20058;-75
2022/07/31 12:21:56;;;;;;;29.38;18.10;;;20.80;99.90;;;;;;4955491;28;20047;-73
2022/07/31 12:24:23;;;;;;;32.17;18.88;;;20.90;99.90;;;;;;4938487;29;20499;-74
2022/07/31 12:26:58;;;;;;;30.27;18.95;;;21.20;99.90;;;;;;4938768;29;20487;-73
2022/07/31 12:29:37;;;;;;;31.60;19.58;;;21.40;99.90;;;;;;4955668;28;20062;-74
2022/07/31 12:32:05;;;;;;;30.52;18.10;;;21.40;99.90;;;;;;4954496;29;20043;-73
2022/07/31 12:34:42;;;;;;;34.30;20.38;;;21.10;99.90;;;;;;4956252;28;20447;-74
2022/07/31 12:37:13;;;;;;;35.25;20.40;;;20.70;99.90;;;;;;4939986;29;20142;-73
2022/07/31 12:39:51;;;;;;;32.65;20.58;;;20.60;99.90;;;;;;4939607;29;20451;-73
2022/07/31 12:42:27;;;;;;;31.65;20.33;;;20.50;99.90;;;;;;4955518;28;20086;-74
2022/07/31 12:44:54;;;;;;;33.20;21.02;;;20.60;99.90;;;;;;4939909;29;20134;-73
2022/07/31 12:47:28;;;;;;;31.55;20.33;;;20.60;99.90;;;;;;4955768;29;20050;-73
2022/07/31 12:49:59;;;;;;;32.70;21.27;;;20.60;99.90;;;;;;4957916;28;20130;-74